Warning: Invalid argument supplied for foreach() in /server/czul.ca/includes/prompts.inc.php on line 9

Warning: Invalid argument supplied for foreach() in /server/czul.ca/includes/prompts.inc.php on line 9

Warning: Invalid argument supplied for foreach() in /server/czul.ca/includes/prompts.inc.php on line 9
CZUL - FIR virtuelle de Montréal

KDTW

Detroit Metropolitan Wayne County Airport

{{ICAO_CODE}} KDTW
{{IATA_CODE}} DTW
{{NAME}} Detroit Metropolitan Wayne County Airport
{{LOCATION}} Detroit, Michigan, US
{{ELEVATION}} 645 {{FEET}} / 196.6 {{METERS}}
{{LATITUDE}} 42.21239853
{{LONGITUDE}} -83.35340118
{{METAR}} KDTW 232353Z 28011KT 6SM -RA BR BKN012 BKN018 OVC028 11/09 A2980 RMK AO2 RAE02B35 SLP092 P0000 60009 T01110094 10111 20106 51018
{{EXTRA_INFO}} {{DISPLAY_CHARTS_AND_CFS}}
{{DISPLAY_NOTAMS}}
{{RUNWAY}} {{LENGTH}} {{WIDTH}} {{SURFACE}} {{ELEVATION}}
03L 8501 ft 200 ft PEM 636 ft
03R 10001 ft 150 ft CON 633 ft
04L 10000 ft 150 ft CON 645 ft
04R 12003 ft 200 ft CON 637 ft
09L 8708 ft 200 ft PEM 638 ft
09R 8500 ft 150 ft CON 636 ft
21R 8501 ft 200 ft PEM 632 ft
21L 10001 ft 150 ft CON 632 ft
22R 10000 ft 150 ft CON 642 ft
22L 12003 ft 200 ft CON 636 ft
27R 8708 ft 200 ft PEM 635 ft
27L 8500 ft 150 ft CON 629 ft